Search for airport 
image banner adimage banner adimage banner ad
image banner ad

PS91 - Conemaugh Valley Memorial Hospital

Located in Johnstown, United States

ICAO - PS91, IATA -

Data provided by Airmate  

General information

Coordinates: N40°18'20" W78°55'5"
Elevation is 1250 feet MSL.
Magnetic variation is -08° East
View others Airports in Pennsylvania

Operational data

Special qualification required
Current time UTC:
Current local time:
METAR: KJST 091717Z AUTO 10003KT 9SM -RA SCT010 SCT017 OVC041 04/02 A2990 RMK AO2 P0002 T00390022
TAF: KJST 091537Z 0916/1012 10012KT 4SM -RA BR OVC020 FM100100 35010G20KT 2SM -RA BR OVC005 WS020/23049KT FM100900 34008G16KT P6SM BKN006 OVC010
View NOTAMs / SUP AIP / TFR affecting this airport [VIEW]
Communications frequencies: [VIEW]

Runways:

Airport contact information

Address: Johnstown United States

Satellite view of PS91